Olovjannaja, Russia
Current Conditions -  °F | °C
As of 7:00 AM on Wednesday 22 Oct 2014 (Local Time) from UIAA Reporting Station
Clear Clear  
Wind Chill:   Ceiling: Unl
Heat Index:   Visibility: 6mi
Dew Point:   Wind: 2mph
Humidity: 85%   Direction: NA
Pressure: 29.85"   Gusts: NA
Location:  50.95°N, 115.57°E
Report Text: UIAA 212200Z VRB01MPS 9999 SKC M13/M15 Q1011 NOSIG RMK QFE70029CLRD70
Loading
Personal Weather Stations






























Interactive Weather Map New forecast layout! Learn more

10-Day Weather Forecast

Advertisements
Track Severe Weather on mobile